createdAt,value
2018-09-25T00:02:25.376Z,1.90
2018-09-25T00:04:59.409Z,2.53
2018-09-25T00:07:33.453Z,1.70
2018-09-25T00:10:07.681Z,2.07
2018-09-25T00:12:41.631Z,1.90
2018-09-25T00:15:15.733Z,1.67
2018-09-25T00:17:50.190Z,1.70
2018-09-25T00:20:30.673Z,1.80
2018-09-25T00:23:04.733Z,1.43
2018-09-25T00:25:38.723Z,2.00
2018-09-25T00:28:12.604Z,1.80
2018-09-25T00:30:46.636Z,1.73
2018-09-25T00:33:20.565Z,1.53
2018-09-25T00:35:54.952Z,1.50
2018-09-25T00:38:28.955Z,2.13
2018-09-25T00:41:03.015Z,1.83
2018-09-25T00:43:36.925Z,1.77
2018-09-25T00:46:10.924Z,1.90
2018-09-25T00:48:44.767Z,1.80
2018-09-25T00:51:18.786Z,2.00
2018-09-25T00:53:52.727Z,2.00
2018-09-25T00:56:26.621Z,1.47
2018-09-25T00:59:00.996Z,1.83
2018-09-25T01:01:35.465Z,1.60
2018-09-25T01:04:09.766Z,2.10
2018-09-25T01:06:45.301Z,2.53
2018-09-25T01:09:20.616Z,2.30
2018-09-25T01:11:59.512Z,1.63
2018-09-25T01:14:33.851Z,1.90
2018-09-25T01:17:08.236Z,2.23
2018-09-25T01:19:42.358Z,1.77
2018-09-25T01:22:16.617Z,1.87
2018-09-25T01:24:51.067Z,2.77
2018-09-25T01:27:25.308Z,1.90
2018-09-25T01:29:59.310Z,1.73
2018-09-25T01:32:33.409Z,1.80
2018-09-25T01:35:07.459Z,2.10
2018-09-25T01:37:41.923Z,1.60
2018-09-25T01:40:16.610Z,1.60
2018-09-25T01:42:50.833Z,1.50
2018-09-25T01:45:24.881Z,1.87
2018-09-25T01:47:59.050Z,2.10
2018-09-25T01:50:33.239Z,1.90
2018-09-25T01:53:08.055Z,1.47
2018-09-25T01:55:42.187Z,1.43
2018-09-25T01:58:16.534Z,1.00
2018-09-25T02:00:51.458Z,1.27
2018-09-25T02:03:31.909Z,1.53
2018-09-25T02:06:06.997Z,1.10
2018-09-25T02:08:43.637Z,1.30
2018-09-25T02:11:18.531Z,1.43
2018-09-25T02:13:54.217Z,1.30
2018-09-25T02:16:31.331Z,2.03
2018-09-25T02:19:05.478Z,1.60
2018-09-25T02:21:39.663Z,1.70
2018-09-25T02:24:15.806Z,1.20
2018-09-25T02:26:50.231Z,1.40
2018-09-25T02:29:25.744Z,1.83
2018-09-25T02:32:03.657Z,1.20
2018-09-25T02:34:41.136Z,1.90
2018-09-25T02:37:19.917Z,1.00
2018-09-25T02:39:56.857Z,1.60
2018-09-25T02:42:33.266Z,1.87
2018-09-25T02:45:13.819Z,1.20
2018-09-25T02:47:50.938Z,1.30
2018-09-25T02:53:19.549Z,1.87
2018-09-25T02:55:54.544Z,1.47
2018-09-25T02:58:31.063Z,1.93
2018-09-25T03:01:08.121Z,1.60
2018-09-25T03:03:42.888Z,1.70
2018-09-25T03:06:18.779Z,1.93
2018-09-25T03:08:56.189Z,1.93
2018-09-25T03:11:37.981Z,1.47
2018-09-25T03:14:17.965Z,1.67
2018-09-25T03:16:53.373Z,1.97
2018-09-25T03:19:29.714Z,2.67
2018-09-25T03:22:03.976Z,2.20
2018-09-25T03:24:39.774Z,2.30
2018-09-25T03:27:14.406Z,2.40
2018-09-25T03:29:48.679Z,2.53
2018-09-25T03:32:24.033Z,2.80
2018-09-25T03:34:58.764Z,2.40
2018-09-25T03:37:33.638Z,2.40
2018-09-25T03:40:08.025Z,1.90
2018-09-25T03:42:43.526Z,2.23
2018-09-25T03:45:17.985Z,2.03
2018-09-25T03:49:45.114Z,2.20
2018-09-25T03:52:20.527Z,1.97
2018-09-25T03:54:56.351Z,2.37
2018-09-25T03:57:37.605Z,1.67
2018-09-25T04:16:15.543Z,1.70
2018-09-25T04:22:05.993Z,1.63
2018-09-25T04:24:40.388Z,1.33
2018-09-25T04:30:20.315Z,1.70
2018-09-25T04:33:01.091Z,2.00
2018-09-25T04:35:37.617Z,2.30
2018-09-25T04:38:13.264Z,1.60
2018-09-25T04:40:48.240Z,1.60
2018-09-25T04:43:22.690Z,2.30
2018-09-25T04:45:56.879Z,1.30
2018-09-25T04:48:31.144Z,2.17
2018-09-25T04:51:05.275Z,1.60
2018-09-25T04:53:39.662Z,1.63
2018-09-25T04:56:14.708Z,1.80
2018-09-25T04:58:49.033Z,1.57
2018-09-25T05:01:23.247Z,1.80
2018-09-25T05:03:57.467Z,7.90
2018-09-25T05:06:32.003Z,1.30
2018-09-25T05:09:06.360Z,1.67
2018-09-25T05:11:40.562Z,1.40
2018-09-25T05:14:15.661Z,1.40
2018-09-25T05:16:49.914Z,1.70
2018-09-25T05:19:24.300Z,1.60
2018-09-25T05:21:58.425Z,1.67
2018-09-25T05:24:33.723Z,2.27
2018-09-25T05:27:08.522Z,1.40
2018-09-25T05:29:42.721Z,1.57
2018-09-25T05:32:17.674Z,1.53
2018-09-25T05:34:52.035Z,2.10
2018-09-25T05:37:26.025Z,1.57
2018-09-25T05:40:00.056Z,2.00
2018-09-25T05:42:34.098Z,2.77
2018-09-25T05:45:08.411Z,1.90
2018-09-25T05:47:43.245Z,1.60
2018-09-25T05:50:17.786Z,2.93
2018-09-25T05:52:51.753Z,1.93
2018-09-25T05:55:27.813Z,2.00
2018-09-25T05:58:02.239Z,1.97
2018-09-25T06:00:36.447Z,2.07
2018-09-25T06:03:10.635Z,2.20
2018-09-25T06:05:44.833Z,2.20
2018-09-25T06:08:18.868Z,2.50
2018-09-25T06:10:53.168Z,2.80
2018-09-25T06:13:27.251Z,2.03
2018-09-25T06:16:01.437Z,2.60
2018-09-25T06:18:35.637Z,2.27
2018-09-25T06:21:11.038Z,2.00
2018-09-25T06:23:44.997Z,2.70
2018-09-25T06:26:19.527Z,2.77
2018-09-25T06:28:53.923Z,2.60
2018-09-25T06:31:28.230Z,2.37
2018-09-25T06:34:02.505Z,5.53
2018-09-25T06:36:36.783Z,2.23
2018-09-25T06:39:13.477Z,2.37
2018-09-25T06:41:47.555Z,2.73
2018-09-25T06:44:26.103Z,2.23
2018-09-25T06:47:00.973Z,2.50
2018-09-25T06:49:35.184Z,2.27
2018-09-25T06:52:19.908Z,2.37
2018-09-25T06:54:54.240Z,2.43
2018-09-25T06:57:28.590Z,2.33
2018-09-25T07:00:02.699Z,2.20
2018-09-25T07:02:36.743Z,2.10
2018-09-25T07:05:10.916Z,2.00
2018-09-25T07:07:45.501Z,2.57
2018-09-25T07:10:29.858Z,2.27
2018-09-25T07:13:14.577Z,2.40
2018-09-25T07:15:54.667Z,1.60
2018-09-25T07:18:36.263Z,1.60
2018-09-25T07:21:21.313Z,1.70
2018-09-25T07:24:06.359Z,1.50
2018-09-25T07:26:47.867Z,1.60
2018-09-25T07:29:33.204Z,1.23
2018-09-25T07:32:10.193Z,1.60
2018-09-25T07:34:57.523Z,1.40
2018-09-25T07:37:39.152Z,1.53
2018-09-25T07:40:24.351Z,1.63
2018-09-25T07:43:07.457Z,1.83
2018-09-25T07:45:43.969Z,1.70
2018-09-25T07:48:22.206Z,1.60
2018-09-25T07:51:04.443Z,1.60
2018-09-25T07:53:44.970Z,1.63
2018-09-25T07:56:30.871Z,1.70
2018-09-25T07:59:07.209Z,2.17
2018-09-25T08:01:41.585Z,1.83
2018-09-25T08:04:15.950Z,1.57
2018-09-25T08:06:51.966Z,1.90
2018-09-25T08:09:28.619Z,1.87
2018-09-25T08:19:56.906Z,1.62
2018-09-25T08:22:30.895Z,1.60
2018-09-25T08:25:04.907Z,1.50
2018-09-25T08:27:46.395Z,1.40
2018-09-25T08:30:21.121Z,2.03
2018-09-25T08:32:55.194Z,1.90
2018-09-25T08:35:29.380Z,1.60
2018-09-25T08:38:03.523Z,1.93
2018-09-25T08:40:37.589Z,1.63
2018-09-25T08:43:11.577Z,2.07
2018-09-25T08:45:45.837Z,2.43
2018-09-25T08:48:20.031Z,2.30
2018-09-25T08:50:54.209Z,1.90
2018-09-25T08:53:28.399Z,2.10
2018-09-25T08:56:02.359Z,1.90
2018-09-25T08:58:36.328Z,1.73
2018-09-25T09:01:10.459Z,1.60
2018-09-25T09:03:44.454Z,2.10
2018-09-25T09:06:18.481Z,1.83
2018-09-25T09:08:52.583Z,2.00
2018-09-25T09:11:26.764Z,1.90
2018-09-25T09:14:00.959Z,1.33
2018-09-25T09:16:34.984Z,1.50
2018-09-25T09:19:09.052Z,1.20
2018-09-25T09:21:43.218Z,1.07
2018-09-25T09:24:17.338Z,0.80
2018-09-25T09:26:51.485Z,0.80
2018-09-25T09:29:25.616Z,1.07
2018-09-25T09:31:59.743Z,1.20
2018-09-25T09:34:33.913Z,1.20
2018-09-25T09:37:08.069Z,1.83
2018-09-25T09:39:42.053Z,1.20
2018-09-25T09:42:16.145Z,0.80
2018-09-25T09:52:41.433Z,0.97
2018-09-25T09:55:15.362Z,0.90
2018-09-25T09:57:50.462Z,2.03
2018-09-25T10:00:24.455Z,0.90
2018-09-25T10:02:58.714Z,1.20
2018-09-25T10:05:32.704Z,1.10
2018-09-25T10:08:06.937Z,1.63
2018-09-25T10:10:41.087Z,1.20
2018-09-25T10:13:15.338Z,1.13
2018-09-25T10:15:49.716Z,1.33
2018-09-25T10:18:23.952Z,1.47
2018-09-25T10:20:58.932Z,1.30
2018-09-25T10:23:33.169Z,0.83
2018-09-25T10:26:07.309Z,1.57
2018-09-25T10:28:41.653Z,1.60
2018-09-25T10:31:15.947Z,1.10
2018-09-25T10:33:50.488Z,1.27
2018-09-25T10:36:39.772Z,0.87
2018-09-25T10:39:28.126Z,1.10
2018-09-25T10:42:03.972Z,1.23
2018-09-25T10:44:38.525Z,1.33
2018-09-25T10:47:12.621Z,1.33
2018-09-25T10:50:19.488Z,0.90
2018-09-25T10:52:54.435Z,0.83
2018-09-25T10:55:28.712Z,0.93
2018-09-25T10:58:03.922Z,0.70
2018-09-25T11:00:38.187Z,1.20
2018-09-25T11:03:14.151Z,0.60
2018-09-25T11:05:49.218Z,0.53
2018-09-25T11:08:23.507Z,0.67
2018-09-25T11:10:57.584Z,0.73
2018-09-25T11:13:31.721Z,0.70
2018-09-25T11:16:12.207Z,0.50
2018-09-25T11:18:46.514Z,0.80
2018-09-25T11:21:21.570Z,0.57
2018-09-25T11:23:56.099Z,0.60
2018-09-25T11:26:30.298Z,0.73
2018-09-25T11:29:04.519Z,0.60
2018-09-25T11:31:38.819Z,0.57
2018-09-25T11:34:13.109Z,0.90
2018-09-25T11:36:47.392Z,0.57
2018-09-25T11:39:21.409Z,1.03
2018-09-25T11:41:55.595Z,0.87
2018-09-25T11:44:29.716Z,1.00
2018-09-25T11:47:03.905Z,0.80
2018-09-25T11:49:38.010Z,0.80
2018-09-25T11:52:12.179Z,0.67
2018-09-25T11:54:46.639Z,0.60
2018-09-25T11:57:20.876Z,0.60
2018-09-25T11:59:55.159Z,0.77
2018-09-25T12:02:29.454Z,1.00
2018-09-25T12:05:03.597Z,0.67
2018-09-25T12:07:37.795Z,0.87
2018-09-25T12:10:12.037Z,0.50
2018-09-25T12:12:46.306Z,0.60
2018-09-25T12:15:20.622Z,0.70
2018-09-25T12:17:54.875Z,1.13
2018-09-25T12:20:28.822Z,1.50
2018-09-25T12:23:02.922Z,1.87
2018-09-25T12:25:37.111Z,0.80
2018-09-25T12:28:11.577Z,0.90
2018-09-25T12:30:45.992Z,1.13
2018-09-25T12:33:20.214Z,1.25
2018-09-25T12:35:54.858Z,0.80
2018-09-25T12:38:29.149Z,0.70
2018-09-25T12:41:03.438Z,0.78
2018-09-25T12:43:37.846Z,0.83
2018-09-25T12:46:11.948Z,0.90
2018-09-25T12:48:46.373Z,1.10
2018-09-25T12:51:20.708Z,1.17
2018-09-25T12:53:55.102Z,1.10
2018-09-25T12:56:29.412Z,1.10
2018-09-25T12:59:03.672Z,1.12
2018-09-25T13:01:37.855Z,0.82
2018-09-25T13:04:12.310Z,0.97
2018-09-25T13:06:46.731Z,1.30
2018-09-25T13:09:21.093Z,0.75
2018-09-25T13:11:55.440Z,0.80
2018-09-25T13:14:29.898Z,0.68
2018-09-25T13:17:04.288Z,1.10
2018-09-25T13:19:38.435Z,0.85
2018-09-25T13:22:12.341Z,1.00
2018-09-25T13:24:46.773Z,0.78
2018-09-25T13:27:21.589Z,1.25
2018-09-25T13:29:55.780Z,1.32
2018-09-25T13:32:30.074Z,0.80
2018-09-25T13:35:04.516Z,0.90
2018-09-25T13:37:38.582Z,0.65
2018-09-25T13:40:13.125Z,0.80
2018-09-25T13:42:47.336Z,0.70
2018-09-25T13:45:21.460Z,0.80
2018-09-25T13:47:56.635Z,0.90
2018-09-25T13:50:30.778Z,0.70
2018-09-25T13:53:05.027Z,1.00
2018-09-25T13:55:39.187Z,1.00
2018-09-25T13:58:13.453Z,1.17
2018-09-25T14:00:47.838Z,1.20
2018-09-25T14:03:22.022Z,1.77
2018-09-25T14:05:56.334Z,0.78
2018-09-25T14:08:30.969Z,0.93
2018-09-25T14:11:05.242Z,1.40
2018-09-25T14:13:39.516Z,1.10
2018-09-25T14:16:13.951Z,1.65
2018-09-25T14:18:49.896Z,2.27
2018-09-25T14:21:26.287Z,0.88
2018-09-25T14:24:00.276Z,0.70
2018-09-25T14:26:34.564Z,0.70
2018-09-25T14:29:08.717Z,0.78
2018-09-25T14:31:42.861Z,0.80
2018-09-25T14:34:17.055Z,1.07
2018-09-25T14:36:51.279Z,0.88
2018-09-25T14:39:25.371Z,1.10
2018-09-25T14:41:59.406Z,1.40
2018-09-25T14:44:33.341Z,0.60
2018-09-25T14:47:07.373Z,1.10
2018-09-25T14:49:41.558Z,0.85
2018-09-25T14:52:15.721Z,1.00
2018-09-25T14:54:49.864Z,1.02
2018-09-25T14:57:24.026Z,2.37
2018-09-25T14:59:58.062Z,1.00
2018-09-25T15:02:32.265Z,0.88
2018-09-25T15:05:06.475Z,0.98
2018-09-25T15:07:40.613Z,0.90
2018-09-25T15:10:14.875Z,1.22
2018-09-25T15:12:49.108Z,0.73
2018-09-25T15:15:25.293Z,0.67
2018-09-25T15:18:03.357Z,0.70
2018-09-25T15:20:42.774Z,0.90
2018-09-25T15:23:21.100Z,1.55
2018-09-25T15:25:58.380Z,1.43
2018-09-25T15:28:35.768Z,1.43
2018-09-25T15:31:13.537Z,1.32
2018-09-25T15:33:51.240Z,1.00
2018-09-25T15:36:28.502Z,2.60
2018-09-25T15:39:05.434Z,0.80
2018-09-25T15:41:40.790Z,6.97
2018-09-25T15:44:19.819Z,1.65
2018-09-25T15:46:56.610Z,0.90
2018-09-25T15:49:32.769Z,1.43
2018-09-25T15:52:10.826Z,1.20
2018-09-25T15:54:49.076Z,1.05
2018-09-25T15:57:24.509Z,0.80
2018-09-25T16:00:01.485Z,2.60
2018-09-25T16:02:38.076Z,1.50
2018-09-25T16:05:13.465Z,1.53
2018-09-25T16:07:48.526Z,1.63
2018-09-25T16:10:23.975Z,1.13
2018-09-25T16:13:00.445Z,0.80
2018-09-25T16:15:35.270Z,0.73
2018-09-25T16:18:10.364Z,0.55
2018-09-25T16:20:47.445Z,0.85
2018-09-25T16:23:24.704Z,0.80
2018-09-25T16:26:02.930Z,0.83
2018-09-25T16:28:38.703Z,0.80
2018-09-25T16:31:13.665Z,0.83
2018-09-25T16:33:50.467Z,1.17
2018-09-25T16:36:25.786Z,0.80
2018-09-25T16:39:00.001Z,1.10
2018-09-25T16:41:38.089Z,1.00
2018-09-25T16:44:16.082Z,0.97
2018-09-25T16:46:51.000Z,0.97
2018-09-25T16:49:27.691Z,0.83
2018-09-25T16:52:04.220Z,0.87
2018-09-25T16:54:39.543Z,1.20
2018-09-25T16:57:16.283Z,1.63
2018-09-25T16:59:53.775Z,2.00
2018-09-25T17:02:35.340Z,1.40
2018-09-25T17:05:11.631Z,1.40
2018-09-25T17:07:46.789Z,1.90
2018-09-25T17:10:23.355Z,1.70
2018-09-25T17:13:01.402Z,1.70
2018-09-25T17:15:35.584Z,1.83
2018-09-25T17:18:12.691Z,1.40
2018-09-25T17:20:48.288Z,1.20
2018-09-25T17:23:23.888Z,1.20
2018-09-25T17:25:59.739Z,1.50
2018-09-25T17:28:36.536Z,1.57
2018-09-25T17:31:11.918Z,1.20
2018-09-25T17:33:49.511Z,1.90
2018-09-25T17:36:25.992Z,1.40
2018-09-25T17:39:03.737Z,1.37
2018-09-25T17:41:39.357Z,1.77
2018-09-25T17:44:15.122Z,1.73
2018-09-25T17:46:52.405Z,1.83
2018-09-25T17:49:28.652Z,1.70
2018-09-25T17:52:05.569Z,1.70
2018-09-25T17:54:41.962Z,2.50
2018-09-25T17:57:19.911Z,3.07
2018-09-25T17:59:57.607Z,2.37
2018-09-25T18:02:34.681Z,2.50
2018-09-25T18:05:13.472Z,2.57
2018-09-25T18:07:50.008Z,2.90
2018-09-25T18:10:25.416Z,2.73
2018-09-25T18:13:00.673Z,2.40
2018-09-25T18:15:37.720Z,2.90
2018-09-25T18:18:12.646Z,2.07
2018-09-25T18:20:50.729Z,2.03
2018-09-25T18:23:25.370Z,2.17
2018-09-25T18:26:00.975Z,2.10
2018-09-25T18:28:36.602Z,2.00
2018-09-25T18:31:13.327Z,1.73
2018-09-25T18:33:49.970Z,2.60
2018-09-25T18:36:27.303Z,2.27
2018-09-25T18:39:03.080Z,2.40
2018-09-25T18:41:38.985Z,2.10
2018-09-25T18:44:17.353Z,2.10
2018-09-25T18:46:54.520Z,3.50
2018-09-25T18:49:34.629Z,2.20
2018-09-25T18:52:12.858Z,1.60
2018-09-25T18:54:49.836Z,1.83
2018-09-25T18:57:26.340Z,2.33
2018-09-25T19:00:01.160Z,2.07
2018-09-25T19:02:38.067Z,1.70
2018-09-25T19:05:16.484Z,1.80
2018-09-25T19:07:52.236Z,1.80
2018-09-25T19:10:30.471Z,2.00
2018-09-25T19:13:06.891Z,2.03
2018-09-25T19:15:45.277Z,2.30
2018-09-25T19:18:21.619Z,2.70
2018-09-25T19:20:58.166Z,2.30
2018-09-25T19:23:36.573Z,3.83
2018-09-25T19:26:13.919Z,3.27
2018-09-25T19:28:52.389Z,3.07
2018-09-25T19:31:31.038Z,2.80
2018-09-25T19:34:09.402Z,2.60
2018-09-25T19:36:44.897Z,2.00
2018-09-25T19:39:26.061Z,2.30
2018-09-25T19:42:04.563Z,2.40
2018-09-25T19:44:40.145Z,2.33
2018-09-25T19:47:17.541Z,1.90
2018-09-25T19:49:54.875Z,2.10
2018-09-25T19:52:31.658Z,2.40
2018-09-25T19:55:07.351Z,1.97
2018-09-25T19:57:43.191Z,2.53
2018-09-25T20:00:18.285Z,2.30
2018-09-25T20:02:53.295Z,2.53
2018-09-25T20:05:30.516Z,2.33
2018-09-25T20:08:07.051Z,2.53
2018-09-25T20:10:43.220Z,2.47
2018-09-25T20:13:18.228Z,2.23
2018-09-25T20:15:55.758Z,2.93
2018-09-25T20:18:31.255Z,2.07
2018-09-25T20:21:09.022Z,1.97
2018-09-25T20:23:47.068Z,2.27
2018-09-25T20:26:25.414Z,2.20
2018-09-25T20:29:04.175Z,2.47
2018-09-25T20:31:41.251Z,2.57
2018-09-25T20:34:18.667Z,1.97
2018-09-25T20:36:54.099Z,1.93
2018-09-25T20:39:30.157Z,1.77
2018-09-25T20:42:05.768Z,2.00
2018-09-25T20:44:42.719Z,2.00
2018-09-25T20:47:18.904Z,2.00
2018-09-25T20:49:55.736Z,2.20
2018-09-25T20:52:31.812Z,2.33
2018-09-25T20:55:11.734Z,2.60
2018-09-25T20:57:50.039Z,3.50
2018-09-25T21:00:27.625Z,4.13
2018-09-25T21:03:05.821Z,5.20
2018-09-25T21:05:45.996Z,4.97
2018-09-25T21:08:23.813Z,5.33
2018-09-25T21:11:02.107Z,4.37
2018-09-25T21:13:39.151Z,4.73
2018-09-25T21:16:17.056Z,4.23
2018-09-25T21:18:55.236Z,3.80
2018-09-25T21:21:33.814Z,3.10
2018-09-25T21:24:11.907Z,2.70
2018-09-25T21:26:51.903Z,2.57
2018-09-25T21:29:29.730Z,2.70
2018-09-25T21:32:08.047Z,2.20
2018-09-25T21:34:45.902Z,2.50
2018-09-25T21:37:23.844Z,2.20
2018-09-25T21:40:01.440Z,2.70
2018-09-25T21:42:40.569Z,2.20
2018-09-25T21:45:19.088Z,3.00
2018-09-25T21:47:57.624Z,2.30
2018-09-25T21:50:35.554Z,2.00
2018-09-25T21:53:13.195Z,2.20
2018-09-25T21:55:52.250Z,2.13
2018-09-25T21:58:29.911Z,3.20
2018-09-25T22:01:09.657Z,1.90
2018-09-25T22:03:48.950Z,1.97
2018-09-25T22:06:28.624Z,2.47
2018-09-25T22:09:06.559Z,3.00
2018-09-25T22:11:45.151Z,2.23
2018-09-25T22:14:25.366Z,2.73
2018-09-25T22:17:04.536Z,3.40
2018-09-25T22:19:43.019Z,3.17
2018-09-25T22:22:21.406Z,2.73
2018-09-25T22:25:00.551Z,3.13
2018-09-25T22:27:39.313Z,3.40
2018-09-25T22:30:15.999Z,2.80
2018-09-25T22:32:54.811Z,2.90
2018-09-25T22:35:33.123Z,2.80
2018-09-25T22:38:11.025Z,3.20
2018-09-25T22:40:48.715Z,2.43
2018-09-25T22:43:27.504Z,2.60
2018-09-25T22:46:06.945Z,2.90
2018-09-25T22:48:46.118Z,2.50
2018-09-25T22:51:23.864Z,2.53
2018-09-25T22:54:02.582Z,2.00
2018-09-25T22:56:41.538Z,2.13
2018-09-25T22:59:19.942Z,2.63
2018-09-25T23:01:58.236Z,2.20
2018-09-25T23:04:37.268Z,2.03
2018-09-25T23:07:14.893Z,2.20
2018-09-25T23:09:52.422Z,2.10
2018-09-25T23:12:29.952Z,2.10
2018-09-25T23:15:07.286Z,2.07
2018-09-25T23:17:45.565Z,2.20
2018-09-25T23:20:25.495Z,2.13
2018-09-25T23:23:04.353Z,2.50
2018-09-25T23:25:42.805Z,2.50
2018-09-25T23:28:20.612Z,2.10
2018-09-25T23:30:58.819Z,2.50
2018-09-25T23:33:37.601Z,2.70
2018-09-25T23:36:15.846Z,2.40
2018-09-25T23:38:57.583Z,2.90
2018-09-25T23:41:44.617Z,2.53
2018-09-25T23:44:23.685Z,2.13
2018-09-25T23:47:03.665Z,2.33
2018-09-25T23:49:43.040Z,2.70
2018-09-25T23:52:22.698Z,2.23
2018-09-25T23:55:14.487Z,2.60
2018-09-25T23:57:53.718Z,2.10
